createdAt,value
2023-12-26T00:00:37.732Z,19.15
2023-12-26T00:01:37.776Z,19.16
2023-12-26T00:02:37.857Z,19.15
2023-12-26T00:03:37.988Z,19.16
2023-12-26T00:04:37.940Z,19.15
2023-12-26T00:05:38.147Z,19.16
2023-12-26T00:06:38.155Z,19.14
2023-12-26T00:07:38.099Z,19.15
2023-12-26T00:08:38.141Z,19.15
2023-12-26T00:09:38.174Z,19.15
2023-12-26T00:10:38.220Z,19.14
2023-12-26T00:11:38.325Z,19.15
2023-12-26T00:12:38.349Z,19.14
2023-12-26T00:13:38.395Z,19.14
2023-12-26T00:14:38.474Z,19.14
2023-12-26T00:15:38.497Z,19.14
2023-12-26T00:16:38.542Z,19.14
2023-12-26T00:17:38.794Z,19.14
2023-12-26T00:18:38.748Z,19.15
2023-12-26T00:19:38.760Z,19.14
2023-12-26T00:20:38.789Z,19.14
2023-12-26T00:21:38.839Z,19.15
2023-12-26T00:22:38.844Z,19.14
2023-12-26T00:23:38.956Z,19.15
2023-12-26T00:24:38.945Z,19.13
2023-12-26T00:25:39.018Z,19.13
2023-12-26T00:26:40.719Z,19.12
2023-12-26T00:27:39.126Z,19.13
2023-12-26T00:28:39.191Z,19.13
2023-12-26T00:29:39.267Z,19.13
2023-12-26T00:30:39.335Z,19.13
2023-12-26T00:31:39.338Z,19.12
2023-12-26T00:32:39.496Z,19.13
2023-12-26T00:33:39.564Z,19.13
2023-12-26T00:34:39.617Z,19.13
2023-12-26T00:35:39.583Z,19.13
2023-12-26T00:36:39.610Z,19.14
2023-12-26T00:37:39.625Z,19.13
2023-12-26T00:38:39.732Z,19.13
2023-12-26T00:39:39.757Z,19.13
2023-12-26T00:40:39.790Z,19.13
2023-12-26T00:41:39.868Z,19.14
2023-12-26T00:42:39.987Z,19.13
2023-12-26T00:43:39.957Z,19.13
2023-12-26T00:44:40.054Z,19.14
2023-12-26T00:45:40.054Z,19.14
2023-12-26T00:46:40.112Z,19.14
2023-12-26T00:47:40.390Z,19.13
2023-12-26T00:48:40.299Z,19.13
2023-12-26T00:49:40.340Z,19.13
2023-12-26T00:50:40.341Z,19.13
2023-12-26T00:51:40.361Z,19.13
2023-12-26T00:52:40.419Z,19.14
2023-12-26T00:53:40.509Z,19.14
2023-12-26T00:54:40.568Z,19.14
2023-12-26T00:55:40.584Z,19.13
2023-12-26T00:56:40.707Z,19.14
2023-12-26T00:57:40.691Z,19.14
2023-12-26T00:58:40.751Z,19.13
2023-12-26T00:59:40.828Z,19.13
2023-12-26T01:00:40.907Z,19.13
2023-12-26T01:01:40.907Z,19.13
2023-12-26T01:02:40.972Z,19.14
2023-12-26T01:03:41.069Z,19.14
2023-12-26T01:04:41.132Z,19.13
2023-12-26T01:05:41.132Z,19.13
2023-12-26T01:06:41.174Z,19.13
2023-12-26T01:07:41.220Z,19.13
2023-12-26T01:08:41.311Z,19.12
2023-12-26T01:09:41.311Z,19.13
2023-12-26T01:10:41.352Z,19.12
2023-12-26T01:11:41.509Z,19.12
2023-12-26T01:12:41.445Z,19.13
2023-12-26T01:13:41.541Z,19.13
2023-12-26T01:14:41.609Z,19.13
2023-12-26T01:15:41.612Z,19.13
2023-12-26T01:16:41.691Z,19.12
2023-12-26T01:17:41.853Z,19.12
2023-12-26T01:18:41.909Z,19.12
2023-12-26T01:19:41.832Z,19.12
2023-12-26T01:20:41.927Z,19.11
2023-12-26T01:21:41.970Z,19.11
2023-12-26T01:22:41.990Z,19.11
2023-12-26T01:23:42.095Z,19.11
2023-12-26T01:24:42.104Z,19.10
2023-12-26T01:25:42.170Z,19.10
2023-12-26T01:26:42.263Z,19.10
2023-12-26T01:27:42.269Z,19.10
2023-12-26T01:28:42.330Z,19.10
2023-12-26T01:29:42.413Z,19.11
2023-12-26T01:30:42.472Z,19.10
2023-12-26T01:31:42.494Z,19.11
2023-12-26T01:32:42.614Z,19.11
2023-12-26T01:33:42.709Z,19.12
2023-12-26T01:34:42.721Z,19.12
2023-12-26T01:35:42.763Z,19.11
2023-12-26T01:36:42.735Z,19.12
2023-12-26T01:37:42.807Z,19.12
2023-12-26T01:38:42.937Z,19.12
2023-12-26T01:39:42.902Z,19.12
2023-12-26T01:40:42.969Z,19.12
2023-12-26T01:41:43.019Z,19.13
2023-12-26T01:42:43.153Z,19.12
2023-12-26T01:43:43.120Z,19.12
2023-12-26T01:44:43.239Z,19.13
2023-12-26T01:45:43.236Z,19.12
2023-12-26T01:46:43.341Z,19.12
2023-12-26T01:47:43.447Z,19.12
2023-12-26T01:48:43.543Z,19.12
2023-12-26T01:49:43.528Z,19.12
2023-12-26T01:50:43.607Z,19.12
2023-12-26T01:51:43.821Z,19.11
2023-12-26T01:52:43.653Z,19.12
2023-12-26T01:53:43.722Z,19.12
2023-12-26T01:54:43.742Z,19.12
2023-12-26T01:55:43.836Z,19.12
2023-12-26T01:56:43.870Z,19.12
2023-12-26T01:57:43.909Z,19.12
2023-12-26T01:58:43.997Z,19.13
2023-12-26T01:59:44.042Z,19.12
2023-12-26T02:00:44.118Z,19.11
2023-12-26T02:01:44.125Z,19.11
2023-12-26T02:02:44.226Z,19.11
2023-12-26T02:03:44.283Z,19.12
2023-12-26T02:04:44.284Z,19.12
2023-12-26T02:05:44.384Z,19.12
2023-12-26T02:06:44.380Z,19.11
2023-12-26T02:07:44.434Z,19.11
2023-12-26T02:08:44.562Z,19.11
2023-12-26T02:09:44.557Z,19.12
2023-12-26T02:10:44.612Z,19.12
2023-12-26T02:11:44.728Z,19.12
2023-12-26T02:12:44.708Z,19.12
2023-12-26T02:13:44.771Z,19.11
2023-12-26T02:14:44.861Z,19.11
2023-12-26T02:15:44.884Z,19.11
2023-12-26T02:16:44.922Z,19.11
2023-12-26T02:17:45.102Z,19.10
2023-12-26T02:18:45.158Z,19.10
2023-12-26T02:19:45.155Z,19.10
2023-12-26T02:20:45.200Z,19.10
2023-12-26T02:21:45.194Z,19.10
2023-12-26T02:22:45.250Z,19.10
2023-12-26T02:23:45.342Z,19.10
2023-12-26T02:24:45.375Z,19.10
2023-12-26T02:25:45.407Z,19.10
2023-12-26T02:26:45.495Z,19.10
2023-12-26T02:27:45.528Z,19.10
2023-12-26T02:28:45.602Z,19.09
2023-12-26T02:29:45.707Z,19.08
2023-12-26T02:30:45.773Z,19.09
2023-12-26T02:31:45.771Z,19.09
2023-12-26T02:32:45.947Z,19.09
2023-12-26T02:33:46.037Z,19.08
2023-12-26T02:34:46.034Z,19.08
2023-12-26T02:35:46.085Z,19.08
2023-12-26T02:36:46.069Z,19.09
2023-12-26T02:37:46.143Z,19.09
2023-12-26T02:38:46.274Z,19.09
2023-12-26T02:39:46.286Z,19.08
2023-12-26T02:40:46.315Z,19.08
2023-12-26T02:41:46.469Z,19.09
2023-12-26T02:42:46.455Z,19.09
2023-12-26T02:43:46.524Z,19.09
2023-12-26T02:44:46.612Z,19.09
2023-12-26T02:45:46.658Z,19.09
2023-12-26T02:46:46.716Z,19.09
2023-12-26T02:47:46.861Z,19.08
2023-12-26T02:48:47.227Z,19.08
2023-12-26T02:49:46.960Z,19.08
2023-12-26T02:50:47.035Z,19.09
2023-12-26T02:51:47.056Z,19.09
2023-12-26T02:52:47.129Z,19.09
2023-12-26T02:53:47.183Z,19.09
2023-12-26T02:54:47.222Z,19.10
2023-12-26T02:55:47.287Z,19.09
2023-12-26T02:56:47.383Z,19.09
2023-12-26T02:57:47.404Z,19.09
2023-12-26T02:58:47.461Z,19.09
2023-12-26T02:59:47.564Z,19.08
2023-12-26T03:00:47.582Z,19.09
2023-12-26T03:01:47.616Z,19.09
2023-12-26T03:02:47.800Z,19.09
2023-12-26T03:03:47.946Z,19.08
2023-12-26T03:04:47.790Z,19.09
2023-12-26T03:05:47.879Z,19.08
2023-12-26T03:06:47.934Z,19.08
2023-12-26T03:07:47.971Z,19.08
2023-12-26T03:08:48.062Z,19.08
2023-12-26T03:09:48.083Z,19.08
2023-12-26T03:10:48.143Z,19.09
2023-12-26T03:11:48.266Z,19.09
2023-12-26T03:12:48.266Z,19.09
2023-12-26T03:13:48.315Z,19.08
2023-12-26T03:14:48.386Z,19.08
2023-12-26T03:15:48.418Z,19.09
2023-12-26T03:16:48.473Z,19.08
2023-12-26T03:17:48.633Z,19.08
2023-12-26T03:18:48.681Z,19.08
2023-12-26T03:19:48.665Z,19.08
2023-12-26T03:20:48.697Z,19.07
2023-12-26T03:21:48.766Z,19.08
2023-12-26T03:22:48.844Z,19.08
2023-12-26T03:23:48.916Z,19.08
2023-12-26T03:24:48.953Z,19.08
2023-12-26T03:25:49.002Z,19.08
2023-12-26T03:26:49.060Z,19.08
2023-12-26T03:27:49.147Z,19.09
2023-12-26T03:28:49.153Z,19.08
2023-12-26T03:29:49.243Z,19.07
2023-12-26T03:30:49.413Z,19.07
2023-12-26T03:31:49.315Z,19.06
2023-12-26T03:32:49.544Z,19.06
2023-12-26T03:33:49.506Z,19.05
2023-12-26T03:34:49.535Z,19.04
2023-12-26T03:35:49.597Z,19.06
2023-12-26T03:36:49.659Z,19.05
2023-12-26T03:37:49.707Z,19.07
2023-12-26T03:38:49.777Z,19.06
2023-12-26T03:39:49.825Z,19.07
2023-12-26T03:40:49.900Z,19.07
2023-12-26T03:41:50.232Z,19.07
2023-12-26T03:42:50.036Z,19.07
2023-12-26T03:43:50.096Z,19.07
2023-12-26T03:44:50.187Z,19.06
2023-12-26T03:45:50.245Z,19.07
2023-12-26T03:46:50.261Z,19.07
2023-12-26T03:47:50.367Z,19.07
2023-12-26T03:48:50.510Z,19.07
2023-12-26T03:49:50.470Z,19.07
2023-12-26T03:50:50.542Z,19.06
2023-12-26T03:51:50.561Z,19.06
2023-12-26T03:52:50.632Z,19.06
2023-12-26T03:53:50.708Z,19.07
2023-12-26T03:54:50.738Z,19.07
2023-12-26T03:55:50.805Z,19.07
2023-12-26T03:56:50.891Z,19.07
2023-12-26T03:57:50.890Z,19.07
2023-12-26T03:58:50.989Z,19.07
2023-12-26T03:59:51.033Z,19.07
2023-12-26T04:00:51.138Z,19.06
2023-12-26T04:01:51.136Z,19.07
2023-12-26T04:02:51.312Z,19.07
2023-12-26T04:03:51.454Z,19.07
2023-12-26T04:04:51.379Z,19.07
2023-12-26T04:05:51.488Z,19.07
2023-12-26T04:06:51.476Z,19.07
2023-12-26T04:07:51.526Z,19.07
2023-12-26T04:08:51.642Z,19.06
2023-12-26T04:09:51.641Z,19.06
2023-12-26T04:10:51.724Z,19.06
2023-12-26T04:11:51.786Z,19.07
2023-12-26T04:12:51.882Z,19.05
2023-12-26T04:13:51.921Z,19.05
2023-12-26T04:14:52.008Z,19.06
2023-12-26T04:15:52.049Z,19.06
2023-12-26T04:16:52.123Z,19.06
2023-12-26T04:17:52.261Z,19.06
2023-12-26T04:18:52.382Z,19.06
2023-12-26T04:19:52.318Z,19.06
2023-12-26T04:20:52.404Z,19.06
2023-12-26T04:21:52.439Z,19.07
2023-12-26T04:22:52.518Z,19.07
2023-12-26T04:23:52.592Z,19.06
2023-12-26T04:24:52.657Z,19.07
2023-12-26T04:25:52.718Z,19.06
2023-12-26T04:26:52.796Z,19.06
2023-12-26T04:27:52.823Z,19.06
2023-12-26T04:28:52.891Z,19.06
2023-12-26T04:29:52.994Z,19.06
2023-12-26T04:30:53.039Z,19.06
2023-12-26T04:31:53.088Z,19.05
2023-12-26T04:32:53.334Z,19.05
2023-12-26T04:33:53.414Z,19.05
2023-12-26T04:34:53.290Z,19.06
2023-12-26T04:35:53.344Z,19.05
2023-12-26T04:36:53.373Z,19.05
2023-12-26T04:37:53.458Z,19.06
2023-12-26T04:38:53.575Z,19.06
2023-12-26T04:39:53.580Z,19.05
2023-12-26T04:40:53.640Z,19.06
2023-12-26T04:41:53.708Z,19.06
2023-12-26T04:42:53.993Z,19.05
2023-12-26T04:43:53.783Z,19.05
2023-12-26T04:44:53.924Z,19.04
2023-12-26T04:45:53.916Z,19.05
2023-12-26T04:46:53.941Z,19.05
2023-12-26T04:47:54.059Z,19.06
2023-12-26T04:49:01.530Z,19.03
2023-12-26T04:50:01.521Z,19.04
2023-12-26T04:51:01.387Z,19.04
2023-12-26T04:52:01.375Z,19.04
2023-12-26T04:53:01.368Z,19.04
2023-12-26T04:54:01.447Z,19.04
2023-12-26T04:55:01.374Z,19.04
2023-12-26T04:56:01.399Z,19.05
2023-12-26T04:57:01.449Z,19.04
2023-12-26T04:58:01.420Z,19.04
2023-12-26T04:59:01.409Z,19.04
2023-12-26T05:00:01.500Z,19.04
2023-12-26T05:01:01.458Z,19.04
2023-12-26T05:02:01.413Z,19.03
2023-12-26T05:03:01.769Z,19.03
2023-12-26T05:04:01.449Z,19.03
2023-12-26T05:05:01.418Z,19.03
2023-12-26T05:06:01.492Z,19.03
2023-12-26T05:07:01.483Z,19.03
2023-12-26T05:08:01.421Z,19.03
2023-12-26T05:09:01.514Z,19.03
2023-12-26T05:10:01.447Z,19.04
2023-12-26T05:11:01.433Z,19.03
2023-12-26T05:12:01.446Z,19.03
2023-12-26T05:13:01.415Z,19.03
2023-12-26T05:14:01.498Z,19.03
2023-12-26T05:15:01.600Z,19.04
2023-12-26T05:16:01.432Z,19.03
2023-12-26T05:17:01.418Z,19.04
2023-12-26T05:18:01.651Z,19.04
2023-12-26T05:19:01.615Z,19.04
2023-12-26T05:20:11.049Z,19.04
2023-12-26T05:21:02.642Z,19.04
2023-12-26T05:22:01.578Z,19.04
2023-12-26T05:23:01.611Z,19.03
2023-12-26T05:24:01.583Z,19.03
2023-12-26T05:25:01.593Z,19.03
2023-12-26T05:26:07.855Z,19.04
2023-12-26T05:27:02.630Z,19.03
2023-12-26T05:28:01.587Z,19.03
2023-12-26T05:29:01.609Z,19.03
2023-12-26T05:30:01.594Z,19.03
2023-12-26T05:31:01.624Z,19.03
2023-12-26T05:32:01.619Z,19.02
2023-12-26T05:33:02.010Z,19.01
2023-12-26T05:34:01.666Z,19.02
2023-12-26T05:35:01.673Z,19.02
2023-12-26T05:36:01.761Z,19.03
2023-12-26T05:37:01.812Z,19.02
2023-12-26T05:38:01.843Z,19.03
2023-12-26T05:39:01.953Z,19.03
2023-12-26T05:40:01.966Z,19.02
2023-12-26T05:41:02.034Z,19.02
2023-12-26T05:42:02.149Z,19.02
2023-12-26T05:43:02.447Z,19.03
2023-12-26T05:44:02.205Z,19.02
2023-12-26T05:45:02.359Z,19.03
2023-12-26T05:46:02.350Z,19.02
2023-12-26T05:47:02.408Z,19.02
2023-12-26T05:48:02.630Z,19.02
2023-12-26T05:49:02.689Z,19.02
2023-12-26T05:50:02.813Z,19.02
2023-12-26T05:51:02.743Z,19.03
2023-12-26T05:52:02.719Z,19.03
2023-12-26T05:53:02.777Z,19.03
2023-12-26T05:54:02.859Z,19.04
2023-12-26T05:55:02.911Z,19.04
2023-12-26T05:56:02.988Z,19.03
2023-12-26T05:57:04.298Z,19.04
2023-12-26T05:58:03.079Z,19.04
2023-12-26T05:59:03.142Z,19.03
2023-12-26T06:00:03.244Z,19.04
2023-12-26T06:01:03.296Z,19.04
2023-12-26T06:02:03.335Z,19.03
2023-12-26T06:03:03.399Z,19.04
2023-12-26T06:04:03.479Z,19.03
2023-12-26T06:05:03.513Z,19.04
2023-12-26T06:06:03.620Z,19.03
2023-12-26T06:07:03.642Z,19.03
2023-12-26T06:08:03.711Z,19.03
2023-12-26T06:09:03.839Z,19.03
2023-12-26T06:10:03.850Z,19.03
2023-12-26T06:11:03.923Z,19.04
2023-12-26T06:12:03.987Z,19.04
2023-12-26T06:13:04.039Z,19.04
2023-12-26T06:14:04.125Z,19.03
2023-12-26T06:15:04.176Z,19.03
2023-12-26T06:16:04.228Z,19.03
2023-12-26T06:17:04.295Z,19.03
2023-12-26T06:18:04.439Z,19.03
2023-12-26T06:19:04.530Z,19.02
2023-12-26T06:20:04.647Z,19.01
2023-12-26T06:21:04.610Z,19.01
2023-12-26T06:22:04.586Z,19.00
2023-12-26T06:23:04.655Z,19.01
2023-12-26T06:24:04.762Z,19.01
2023-12-26T06:25:04.813Z,19.01
2023-12-26T06:26:07.964Z,19.01
2023-12-26T06:27:04.912Z,19.01
2023-12-26T06:28:04.907Z,19.01
2023-12-26T06:29:04.884Z,19.01
2023-12-26T06:30:05.010Z,19.02
2023-12-26T06:31:04.991Z,19.01
2023-12-26T06:32:04.881Z,19.02
2023-12-26T06:33:05.066Z,19.01
2023-12-26T06:34:05.061Z,19.01
2023-12-26T06:35:06.100Z,19.01
2023-12-26T06:36:04.933Z,19.01
2023-12-26T06:37:04.900Z,19.01
2023-12-26T06:38:04.883Z,19.02
2023-12-26T06:39:04.996Z,19.01
2023-12-26T06:40:04.885Z,19.01
2023-12-26T06:41:04.945Z,19.01
2023-12-26T06:42:05.079Z,19.01
2023-12-26T06:43:05.082Z,19.01
2023-12-26T06:44:05.163Z,19.00
2023-12-26T06:45:05.237Z,19.00
2023-12-26T06:46:05.287Z,19.01
2023-12-26T06:47:05.331Z,19.00
2023-12-26T06:48:05.739Z,19.00
2023-12-26T06:49:05.586Z,19.01
2023-12-26T06:50:06.532Z,19.00
2023-12-26T06:51:05.630Z,19.01
2023-12-26T06:52:05.688Z,19.01
2023-12-26T06:53:05.772Z,19.01
2023-12-26T06:54:05.851Z,19.01
2023-12-26T06:55:05.866Z,19.02
2023-12-26T06:56:05.952Z,19.01
2023-12-26T06:57:06.096Z,19.02
2023-12-26T06:58:06.084Z,19.02
2023-12-26T06:59:06.156Z,19.02
2023-12-26T07:00:06.278Z,19.02
2023-12-26T07:01:06.340Z,19.02
2023-12-26T07:02:06.357Z,19.02
2023-12-26T07:03:06.530Z,19.02
2023-12-26T07:04:06.579Z,19.02
2023-12-26T07:05:06.580Z,19.01
2023-12-26T07:06:06.721Z,19.02
2023-12-26T07:07:06.712Z,19.01
2023-12-26T07:08:06.773Z,19.01
2023-12-26T07:09:06.916Z,19.01
2023-12-26T07:10:06.937Z,19.01
2023-12-26T07:11:06.999Z,19.01
2023-12-26T07:12:07.109Z,19.01
2023-12-26T07:13:07.150Z,19.01
2023-12-26T07:14:07.224Z,19.01
2023-12-26T07:15:07.339Z,19.00
2023-12-26T07:16:07.371Z,19.00
2023-12-26T07:17:07.432Z,19.00
2023-12-26T07:18:07.727Z,19.01
2023-12-26T07:19:07.721Z,19.00
2023-12-26T07:20:07.695Z,19.00
2023-12-26T07:21:07.768Z,19.00
2023-12-26T07:22:07.764Z,19.00
2023-12-26T07:23:07.845Z,18.99
2023-12-26T07:24:07.958Z,18.99
2023-12-26T07:25:07.990Z,18.99
2023-12-26T07:26:08.050Z,18.99
2023-12-26T07:27:08.147Z,18.99
2023-12-26T07:28:08.205Z,19.00
2023-12-26T07:29:08.305Z,19.00
2023-12-26T07:30:08.424Z,19.00
2023-12-26T07:31:08.413Z,19.00
2023-12-26T07:32:08.492Z,19.01
2023-12-26T07:33:08.683Z,19.01
2023-12-26T07:34:08.724Z,19.00
2023-12-26T07:35:08.708Z,19.01
2023-12-26T07:36:08.853Z,19.00
2023-12-26T07:37:08.839Z,19.00
2023-12-26T07:38:08.907Z,19.00
2023-12-26T07:39:09.001Z,19.01
2023-12-26T07:40:09.058Z,19.01
2023-12-26T07:41:09.117Z,19.00
2023-12-26T07:42:09.302Z,19.01
2023-12-26T07:43:09.267Z,19.00
2023-12-26T07:44:09.354Z,19.00
2023-12-26T07:45:09.460Z,19.00
2023-12-26T07:46:09.474Z,19.00
2023-12-26T07:47:09.555Z,19.00
2023-12-26T07:48:09.748Z,19.01
2023-12-26T07:49:09.843Z,19.00
2023-12-26T07:50:10.091Z,19.00
2023-12-26T07:51:09.886Z,19.01
2023-12-26T07:52:09.890Z,19.00
2023-12-26T07:53:09.998Z,18.99
2023-12-26T07:54:10.065Z,19.00
2023-12-26T07:55:10.111Z,18.99
2023-12-26T07:56:10.176Z,18.99
2023-12-26T07:57:10.241Z,18.99
2023-12-26T07:58:10.326Z,18.99
2023-12-26T07:59:10.389Z,18.99
2023-12-26T08:00:10.489Z,18.99
2023-12-26T08:01:10.536Z,18.99
2023-12-26T08:02:10.598Z,18.99
2023-12-26T08:03:10.734Z,18.99
2023-12-26T08:04:10.871Z,18.99
2023-12-26T08:05:10.810Z,19.00
2023-12-26T08:06:11.010Z,18.99
2023-12-26T08:07:10.948Z,18.99
2023-12-26T08:08:11.015Z,19.00
2023-12-26T08:09:11.151Z,19.00
2023-12-26T08:10:11.168Z,19.00
2023-12-26T08:11:11.224Z,19.00
2023-12-26T08:12:11.349Z,19.00
2023-12-26T08:13:11.372Z,18.99
2023-12-26T08:14:11.438Z,18.99
2023-12-26T08:15:11.550Z,19.00
2023-12-26T08:16:11.595Z,18.99
2023-12-26T08:17:11.649Z,18.99
2023-12-26T08:18:11.776Z,18.99
2023-12-26T08:19:11.913Z,18.99
2023-12-26T08:20:11.835Z,18.99
2023-12-26T08:21:11.922Z,18.98
2023-12-26T08:22:11.991Z,18.98
2023-12-26T08:23:12.064Z,18.98
2023-12-26T08:24:12.171Z,18.98
2023-12-26T08:25:12.222Z,18.99
2023-12-26T08:26:12.303Z,18.98
2023-12-26T08:27:12.394Z,18.99
2023-12-26T08:28:12.427Z,18.99
2023-12-26T08:29:12.502Z,18.99
2023-12-26T08:30:12.701Z,19.00
2023-12-26T08:31:12.701Z,18.99
2023-12-26T08:32:12.703Z,19.00
2023-12-26T08:33:12.818Z,18.99
2023-12-26T08:34:12.974Z,18.98
2023-12-26T08:35:12.928Z,18.99
2023-12-26T08:36:13.114Z,18.99
2023-12-26T08:37:13.037Z,18.99
2023-12-26T08:38:13.110Z,18.99
2023-12-26T08:39:13.228Z,19.00
2023-12-26T08:40:13.247Z,19.00
2023-12-26T08:41:13.289Z,19.00
2023-12-26T08:42:13.376Z,19.00
2023-12-26T08:43:13.418Z,19.00
2023-12-26T08:44:13.496Z,19.01
2023-12-26T08:45:13.612Z,19.01
2023-12-26T08:46:13.620Z,19.01
2023-12-26T08:47:13.676Z,18.99
2023-12-26T08:48:13.914Z,18.99
2023-12-26T08:49:13.933Z,18.99
2023-12-26T08:50:13.897Z,18.99
2023-12-26T08:51:14.022Z,18.99
2023-12-26T08:52:14.037Z,19.00
2023-12-26T08:53:14.121Z,19.00
2023-12-26T08:54:14.232Z,19.02
2023-12-26T08:55:14.258Z,19.02
2023-12-26T08:56:14.325Z,19.03
2023-12-26T08:57:14.481Z,19.01
2023-12-26T08:58:14.468Z,19.01
2023-12-26T08:59:14.527Z,19.00
2023-12-26T09:00:14.776Z,19.00
2023-12-26T09:01:14.701Z,19.00
2023-12-26T09:02:14.736Z,18.99
2023-12-26T09:03:15.210Z,18.99
2023-12-26T09:04:14.932Z,18.98
2023-12-26T09:05:14.961Z,18.99
2023-12-26T09:06:15.156Z,18.99
2023-12-26T09:07:15.084Z,18.98
2023-12-26T09:08:15.149Z,18.99
2023-12-26T09:09:15.266Z,18.99
2023-12-26T09:10:15.274Z,18.99
2023-12-26T09:11:15.361Z,19.00
2023-12-26T09:12:15.517Z,19.01
2023-12-26T09:13:15.498Z,19.01
2023-12-26T09:14:15.572Z,19.01
2023-12-26T09:15:15.796Z,19.02
2023-12-26T09:16:15.689Z,19.02
2023-12-26T09:17:15.735Z,19.03
2023-12-26T09:18:15.891Z,19.14
2023-12-26T09:19:15.959Z,19.18
2023-12-26T09:20:15.923Z,19.22
2023-12-26T09:21:16.085Z,19.22
2023-12-26T09:22:16.024Z,19.20
2023-12-26T09:23:16.076Z,19.17
2023-12-26T09:24:16.168Z,19.21
2023-12-26T09:25:16.209Z,19.25
2023-12-26T09:26:16.266Z,19.26
2023-12-26T09:27:16.386Z,19.27
2023-12-26T09:28:16.404Z,19.29
2023-12-26T09:29:16.447Z,19.30
2023-12-26T09:30:16.634Z,19.32
2023-12-26T09:31:16.607Z,19.33
2023-12-26T09:32:16.628Z,19.30
2023-12-26T09:33:16.763Z,19.27
2023-12-26T09:34:16.842Z,19.24
2023-12-26T09:35:16.816Z,19.23
2023-12-26T09:36:16.937Z,19.22
2023-12-26T09:37:16.924Z,19.22
2023-12-26T09:38:17.010Z,19.22
2023-12-26T09:39:17.106Z,19.22
2023-12-26T09:40:17.115Z,19.22
2023-12-26T09:41:17.191Z,19.22
2023-12-26T09:42:17.223Z,19.21
2023-12-26T09:43:17.278Z,19.20
2023-12-26T09:44:17.348Z,19.20
2023-12-26T09:45:17.457Z,19.21
2023-12-26T09:46:17.476Z,19.19
2023-12-26T09:47:17.548Z,19.20
2023-12-26T09:48:17.751Z,19.20
2023-12-26T09:49:17.834Z,19.20
2023-12-26T09:50:17.952Z,19.20
2023-12-26T09:51:17.852Z,19.20
2023-12-26T09:52:17.833Z,19.20
2023-12-26T09:53:17.898Z,19.20
2023-12-26T09:54:18.118Z,19.21
2023-12-26T09:55:18.011Z,19.20
2023-12-26T09:56:18.078Z,19.20
2023-12-26T09:57:18.170Z,19.20
2023-12-26T09:58:18.207Z,19.21
2023-12-26T09:59:18.255Z,19.20
2023-12-26T10:00:18.367Z,19.21
2023-12-26T10:01:18.402Z,19.21
2023-12-26T10:02:18.448Z,19.22
2023-12-26T10:03:18.583Z,19.22
2023-12-26T10:04:18.580Z,19.21
2023-12-26T10:05:18.641Z,19.22
2023-12-26T10:06:18.749Z,19.22
2023-12-26T10:07:18.767Z,19.24
2023-12-26T10:08:18.841Z,19.28
2023-12-26T10:09:18.950Z,19.35
2023-12-26T10:10:18.968Z,19.44
2023-12-26T10:11:19.009Z,19.52
2023-12-26T10:12:19.087Z,19.59
2023-12-26T10:13:19.073Z,19.64
2023-12-26T10:14:19.088Z,19.61
2023-12-26T10:15:19.266Z,19.59
2023-12-26T10:16:19.181Z,19.65
2023-12-26T10:17:19.270Z,19.71
2023-12-26T10:18:19.290Z,19.71
2023-12-26T10:19:19.338Z,19.71
2023-12-26T10:20:19.298Z,19.70
2023-12-26T10:21:19.463Z,19.69
2023-12-26T10:22:19.362Z,19.70
2023-12-26T10:23:19.382Z,19.71
2023-12-26T10:24:19.436Z,19.68
2023-12-26T10:25:19.408Z,19.65
2023-12-26T10:26:19.418Z,19.69
2023-12-26T10:27:19.487Z,19.76
2023-12-26T10:28:19.475Z,19.90
2023-12-26T10:29:19.477Z,20.00
2023-12-26T10:30:19.584Z,20.10
2023-12-26T10:31:19.587Z,20.17
2023-12-26T10:32:19.536Z,20.32
2023-12-26T10:33:19.622Z,20.44
2023-12-26T10:34:19.891Z,20.51
2023-12-26T10:35:19.695Z,20.53
2023-12-26T10:36:19.831Z,20.47
2023-12-26T10:37:19.807Z,20.51
2023-12-26T10:38:19.853Z,20.60
2023-12-26T10:39:20.085Z,20.71
2023-12-26T10:40:19.939Z,20.80
2023-12-26T10:41:19.911Z,20.83
2023-12-26T10:42:19.992Z,20.75
2023-12-26T10:43:19.948Z,20.62
2023-12-26T10:44:20.030Z,20.66
2023-12-26T10:45:20.059Z,20.72
2023-12-26T10:46:20.642Z,20.73
2023-12-26T10:47:20.026Z,20.67
2023-12-26T10:48:20.160Z,20.60
2023-12-26T10:49:20.206Z,20.53
2023-12-26T10:50:20.140Z,20.50
2023-12-26T10:51:20.269Z,20.61
2023-12-26T10:52:20.201Z,20.68
2023-12-26T10:53:20.181Z,20.69
2023-12-26T10:54:20.297Z,20.62
2023-12-26T10:55:20.254Z,20.55
2023-12-26T10:56:20.284Z,20.49
2023-12-26T10:57:20.383Z,20.45
2023-12-26T10:58:20.372Z,20.46
2023-12-26T10:59:20.389Z,20.50
2023-12-26T11:00:20.480Z,20.47
2023-12-26T11:01:20.549Z,20.41
2023-12-26T11:02:20.533Z,20.35
2023-12-26T11:03:20.669Z,20.30
2023-12-26T11:04:20.706Z,20.26
2023-12-26T11:05:20.794Z,20.23
2023-12-26T11:06:21.211Z,20.19
2023-12-26T11:07:20.806Z,20.16
2023-12-26T11:08:20.865Z,20.13
2023-12-26T11:09:20.968Z,20.11
2023-12-26T11:10:21.025Z,20.09
2023-12-26T11:11:21.098Z,20.06
2023-12-26T11:12:21.196Z,20.03
2023-12-26T11:13:21.207Z,20.01
2023-12-26T11:14:21.257Z,19.99
2023-12-26T11:15:21.494Z,19.97
2023-12-26T11:16:21.305Z,19.95
2023-12-26T11:17:21.346Z,19.94
2023-12-26T11:18:21.446Z,19.93
2023-12-26T11:19:21.443Z,19.91
2023-12-26T11:20:21.335Z,19.89
2023-12-26T11:21:21.397Z,19.87
2023-12-26T11:22:21.360Z,19.86
2023-12-26T11:23:21.356Z,19.86
2023-12-26T11:24:21.507Z,19.84
2023-12-26T11:25:21.409Z,19.81
2023-12-26T11:26:21.402Z,19.81
2023-12-26T11:27:21.498Z,19.80
2023-12-26T11:28:21.586Z,19.78
2023-12-26T11:29:21.452Z,19.78
2023-12-26T11:30:21.569Z,19.77
2023-12-26T11:31:21.534Z,19.76
2023-12-26T11:32:21.480Z,19.75
2023-12-26T11:33:21.621Z,19.73
2023-12-26T11:34:21.670Z,19.72
2023-12-26T11:35:21.541Z,19.71
2023-12-26T11:36:21.682Z,19.70
2023-12-26T11:37:21.570Z,19.68
2023-12-26T11:38:21.593Z,19.66
2023-12-26T11:39:21.731Z,19.66
2023-12-26T11:40:21.604Z,19.65
2023-12-26T11:41:21.623Z,19.64
2023-12-26T11:42:21.706Z,19.63
2023-12-26T11:43:21.658Z,19.64
2023-12-26T11:44:21.713Z,19.62
2023-12-26T11:45:21.814Z,19.61
2023-12-26T11:46:21.728Z,19.60
2023-12-26T11:47:21.730Z,19.59
2023-12-26T11:48:21.915Z,19.59
2023-12-26T11:49:21.872Z,19.58
2023-12-26T11:50:21.801Z,19.56
2023-12-26T11:51:21.892Z,19.56
2023-12-26T11:52:21.844Z,19.56
2023-12-26T11:53:21.902Z,19.56
2023-12-26T11:54:22.059Z,19.54
2023-12-26T11:55:21.918Z,19.54
2023-12-26T11:56:21.945Z,19.52
2023-12-26T11:57:22.079Z,19.51
2023-12-26T11:58:22.042Z,19.51
2023-12-26T11:59:22.029Z,19.51
2023-12-26T12:00:22.127Z,19.51
2023-12-26T12:01:22.150Z,19.50
2023-12-26T12:02:22.120Z,19.50
2023-12-26T12:03:22.201Z,19.49
2023-12-26T12:04:22.209Z,19.49
2023-12-26T12:05:22.207Z,19.48
2023-12-26T12:06:22.284Z,19.48
2023-12-26T12:07:22.278Z,19.47
2023-12-26T12:08:22.294Z,19.46
2023-12-26T12:09:22.463Z,19.45
2023-12-26T12:10:22.338Z,19.45
2023-12-26T12:11:22.378Z,19.45
2023-12-26T12:12:22.558Z,19.45
2023-12-26T12:13:22.441Z,19.45
2023-12-26T12:14:22.492Z,19.44
2023-12-26T12:15:22.616Z,19.43
2023-12-26T12:16:22.526Z,19.43
2023-12-26T12:17:22.541Z,19.44
2023-12-26T12:18:22.789Z,19.43
2023-12-26T12:19:22.718Z,19.43
2023-12-26T12:20:23.171Z,19.42
2023-12-26T12:21:22.790Z,19.42
2023-12-26T12:22:22.702Z,19.41
2023-12-26T12:23:22.750Z,19.42
2023-12-26T12:24:22.886Z,19.40
2023-12-26T12:25:22.801Z,19.40
2023-12-26T12:26:22.845Z,19.40
2023-12-26T12:27:23.074Z,19.41
2023-12-26T12:28:22.914Z,19.42
2023-12-26T12:29:22.927Z,19.41
2023-12-26T12:30:23.002Z,19.39
2023-12-26T12:31:23.031Z,19.40
2023-12-26T12:32:23.064Z,19.40
2023-12-26T12:33:23.243Z,19.39
2023-12-26T12:34:23.174Z,19.37
2023-12-26T12:35:23.161Z,19.38
2023-12-26T12:36:23.266Z,19.38
2023-12-26T12:37:23.234Z,19.37
2023-12-26T12:38:23.250Z,19.38
2023-12-26T12:39:23.428Z,19.37
2023-12-26T12:40:23.342Z,19.38
2023-12-26T12:41:23.381Z,19.37
2023-12-26T12:42:23.468Z,19.37
2023-12-26T12:43:25.790Z,19.37
2023-12-26T12:44:23.631Z,19.37
2023-12-26T12:45:23.713Z,19.38
2023-12-26T12:46:23.698Z,19.37
2023-12-26T12:47:23.777Z,19.37
2023-12-26T12:48:23.953Z,19.38
2023-12-26T12:49:23.866Z,19.37
2023-12-26T12:50:23.858Z,19.36
2023-12-26T12:51:23.963Z,19.35
2023-12-26T12:52:23.950Z,19.36
2023-12-26T12:53:23.944Z,19.35